createdAt,value
2019-01-16T00:01:06.952Z,48.27
2019-01-16T00:05:17.156Z,48.58
2019-01-16T00:09:22.587Z,49.22
2019-01-16T00:13:29.908Z,49.32
2019-01-16T00:17:52.802Z,49.18
2019-01-16T00:22:02.845Z,49.28
2019-01-16T00:26:15.704Z,49.04
2019-01-16T00:30:25.947Z,48.76
2019-01-16T00:34:39.430Z,48.60
2019-01-16T00:38:59.781Z,49.55
2019-01-16T00:43:12.956Z,49.42
2019-01-16T00:47:20.290Z,49.10
2019-01-16T00:51:25.770Z,49.25
2019-01-16T00:55:51.079Z,49.17
2019-01-16T01:00:47.717Z,49.77
2019-01-16T01:04:55.037Z,49.40
2019-01-16T01:09:02.425Z,49.73
2019-01-16T01:13:18.605Z,49.48
2019-01-16T01:17:31.972Z,49.12
2019-01-16T01:21:45.056Z,48.75
2019-01-16T01:25:54.913Z,48.79
2019-01-16T01:30:04.684Z,48.53
2019-01-16T01:34:17.681Z,48.35
2019-01-16T01:38:25.857Z,48.24
2019-01-16T01:42:48.995Z,48.18
2019-01-16T01:47:02.039Z,48.16
2019-01-16T01:51:09.366Z,48.04
2019-01-16T01:55:19.409Z,47.93
2019-01-16T01:59:41.772Z,47.63
2019-01-16T02:03:49.085Z,47.71
2019-01-16T02:08:02.247Z,47.66
2019-01-16T02:12:07.764Z,47.67
2019-01-16T02:16:15.137Z,47.47
2019-01-16T02:20:32.704Z,47.44
2019-01-16T02:24:55.621Z,47.63
2019-01-16T02:29:18.988Z,47.49
2019-01-16T02:33:26.332Z,47.67
2019-01-16T02:37:33.653Z,47.70
2019-01-16T02:41:52.855Z,47.77
2019-01-16T02:46:06.827Z,47.87
2019-01-16T02:50:14.316Z,48.39
2019-01-16T02:54:21.638Z,48.15
2019-01-16T02:58:28.963Z,48.18
2019-01-16T03:02:52.093Z,48.54
2019-01-16T03:06:59.403Z,49.06
2019-01-16T03:11:06.799Z,49.51
2019-01-16T03:15:12.405Z,49.68
2019-01-16T03:19:37.496Z,50.20
2019-01-16T03:23:48.795Z,50.72
2019-01-16T03:27:56.091Z,51.21
2019-01-16T03:32:03.444Z,51.11
2019-01-16T03:36:26.607Z,51.09
2019-01-16T03:40:37.988Z,50.67
2019-01-16T03:44:57.161Z,51.35
2019-01-16T03:49:13.249Z,51.27
2019-01-16T03:53:18.634Z,51.18
2019-01-16T03:57:28.911Z,51.12
2019-01-16T04:01:52.104Z,51.51
2019-01-16T04:05:59.431Z,51.59
2019-01-16T04:10:10.852Z,51.87
2019-01-16T04:14:23.857Z,52.20
2019-01-16T04:18:46.767Z,52.13
2019-01-16T04:22:56.768Z,52.28
2019-01-16T04:27:06.797Z,52.44
2019-01-16T04:31:19.568Z,52.84
2019-01-16T04:35:26.884Z,52.59
2019-01-16T04:39:37.160Z,52.36
2019-01-16T04:43:50.453Z,52.00
2019-01-16T04:48:06.196Z,51.75
2019-01-16T04:52:22.620Z,52.13
2019-01-16T04:56:45.014Z,51.94
2019-01-16T05:00:52.342Z,51.57
2019-01-16T05:04:59.656Z,51.68
2019-01-16T05:09:09.357Z,51.35
2019-01-16T05:13:34.480Z,50.96
2019-01-16T05:17:41.818Z,51.29
2019-01-16T05:21:54.581Z,51.43
2019-01-16T05:26:07.604Z,51.61
2019-01-16T05:30:27.396Z,51.60
2019-01-16T05:34:34.722Z,51.32
2019-01-16T05:38:45.864Z,51.19
2019-01-16T05:43:09.315Z,51.72
2019-01-16T05:47:16.670Z,52.06
2019-01-16T05:51:30.719Z,51.98
2019-01-16T05:55:38.038Z,51.58
2019-01-16T05:59:48.057Z,51.57
2019-01-16T06:04:11.469Z,51.35
2019-01-16T06:08:24.830Z,51.13
2019-01-16T06:12:32.147Z,50.83
2019-01-16T06:16:39.477Z,50.69
2019-01-16T06:20:52.758Z,50.42
2019-01-16T06:25:02.774Z,50.48
2019-01-16T06:29:10.642Z,50.25
2019-01-16T06:33:34.208Z,50.39
2019-01-16T06:37:50.381Z,50.25
2019-01-16T06:42:03.430Z,50.56
2019-01-16T06:46:16.558Z,51.04
2019-01-16T06:50:41.760Z,50.79
2019-01-16T06:54:55.730Z,50.97
2019-01-16T06:59:05.745Z,50.98
2019-01-16T07:03:13.741Z,51.10
2019-01-16T07:07:29.655Z,50.54
2019-01-16T07:11:42.890Z,51.17
2019-01-16T07:15:55.650Z,52.24
2019-01-16T07:20:09.626Z,52.40
2019-01-16T07:24:29.052Z,52.66
2019-01-16T07:28:39.040Z,52.54
2019-01-16T07:32:51.793Z,52.26
2019-01-16T07:36:59.117Z,51.75
2019-01-16T07:41:22.265Z,51.30
2019-01-16T07:45:29.595Z,52.23
2019-01-16T07:49:52.907Z,52.09
2019-01-16T07:54:12.144Z,53.22
2019-01-16T07:58:22.458Z,52.61
2019-01-16T08:02:35.447Z,51.51
2019-01-16T08:07:00.721Z,52.76
2019-01-16T08:11:08.062Z,53.24
2019-01-16T08:15:14.014Z,53.23
2019-01-16T08:19:26.772Z,52.67
2019-01-16T08:23:43.833Z,52.46
2019-01-16T08:28:07.072Z,51.85
2019-01-16T08:32:17.104Z,50.92
2019-01-16T08:36:30.553Z,51.61
2019-01-16T08:40:36.066Z,51.14
2019-01-16T08:44:49.099Z,52.44
2019-01-16T08:49:03.126Z,52.68
2019-01-16T08:53:26.318Z,51.92
2019-01-16T08:57:51.567Z,50.73
2019-01-16T09:02:15.120Z,50.13
2019-01-16T09:06:31.542Z,49.11
2019-01-16T09:10:54.599Z,48.47
2019-01-16T09:15:18.013Z,49.83
2019-01-16T09:19:34.183Z,50.63
2019-01-16T09:23:57.492Z,49.21
2019-01-16T09:28:07.685Z,48.87
2019-01-16T09:32:17.707Z,49.30
2019-01-16T09:36:28.722Z,49.30
2019-01-16T09:40:34.184Z,48.71
2019-01-16T09:44:47.953Z,48.64
2019-01-16T09:49:10.886Z,47.72
2019-01-16T09:53:28.534Z,46.98
2019-01-16T09:57:41.537Z,47.38
2019-01-16T10:06:12.818Z,42.78
2019-01-16T10:10:42.792Z,40.66
2019-01-16T10:15:04.996Z,41.29
2019-01-16T10:19:25.370Z,40.00
2019-01-16T10:23:48.701Z,40.86
2019-01-16T10:27:56.147Z,42.80
2019-01-16T10:32:27.393Z,44.08
2019-01-16T10:36:43.504Z,44.27
2019-01-16T10:40:48.953Z,43.89
2019-01-16T10:45:04.962Z,44.52
2019-01-16T10:49:12.276Z,44.24
2019-01-16T10:53:35.448Z,44.01
2019-01-16T10:57:45.536Z,44.10
2019-01-16T11:01:52.869Z,43.94
2019-01-16T11:06:00.188Z,42.85
2019-01-16T11:10:28.050Z,42.21
2019-01-16T11:14:47.141Z,41.02
2019-01-16T11:18:52.740Z,39.84
2019-01-16T11:23:15.942Z,37.66
2019-01-16T11:27:38.127Z,35.69
2019-01-16T11:31:46.325Z,33.79
2019-01-16T11:35:56.728Z,31.26
2019-01-16T11:40:04.732Z,29.86
2019-01-16T11:44:15.213Z,29.59
2019-01-16T11:48:32.105Z,29.90
2019-01-16T11:52:44.894Z,29.80
2019-01-16T11:56:54.617Z,27.90
2019-01-16T12:01:10.552Z,26.32
2019-01-16T12:05:23.825Z,26.08
2019-01-16T12:09:33.885Z,24.74
2019-01-16T12:13:41.219Z,24.33
2019-01-16T12:17:51.437Z,24.47
2019-01-16T12:22:01.629Z,25.50
2019-01-16T12:26:21.228Z,26.24
2019-01-16T12:30:42.141Z,26.47
2019-01-16T12:34:58.178Z,27.12
2019-01-16T12:39:10.848Z,27.17
2019-01-16T12:43:24.260Z,28.45
2019-01-16T12:47:41.212Z,30.12
2019-01-16T12:51:51.601Z,42.72
2019-01-16T12:55:57.594Z,29.10
2019-01-16T13:00:12.044Z,34.52
2019-01-16T13:04:31.040Z,41.78
2019-01-16T13:08:41.071Z,44.70
2019-01-16T13:13:04.232Z,39.14
2019-01-16T13:17:27.541Z,30.89
2019-01-16T13:21:40.460Z,33.02
2019-01-16T13:25:50.577Z,34.85
2019-01-16T13:30:09.718Z,41.03
2019-01-16T13:34:33.196Z,39.58
2019-01-16T13:38:46.221Z,38.23
2019-01-16T13:42:59.635Z,38.38
2019-01-16T13:47:19.412Z,39.28
2019-01-16T13:51:26.811Z,47.86
2019-01-16T13:55:52.148Z,37.18
2019-01-16T14:00:16.230Z,37.74
2019-01-16T14:04:29.329Z,43.55
2019-01-16T14:08:48.478Z,37.46
2019-01-16T14:13:09.010Z,38.56
2019-01-16T14:17:32.397Z,38.87
2019-01-16T14:21:45.479Z,38.38
2019-01-16T14:26:10.793Z,38.48
2019-01-16T14:30:22.334Z,38.68
2019-01-16T14:34:38.515Z,38.74
2019-01-16T14:38:48.542Z,38.93
2019-01-16T14:42:56.812Z,39.04
2019-01-16T14:47:20.101Z,38.90
2019-01-16T14:51:30.444Z,38.89
2019-01-16T14:55:55.705Z,39.21
2019-01-16T15:00:03.115Z,39.18
2019-01-16T15:04:22.648Z,39.36
2019-01-16T15:08:31.075Z,39.25
2019-01-16T15:12:44.323Z,39.44
2019-01-16T15:16:57.319Z,39.57
2019-01-16T15:21:05.511Z,40.42
2019-01-16T15:25:11.091Z,40.80
2019-01-16T15:29:16.532Z,41.12
2019-01-16T15:33:23.853Z,40.62
2019-01-16T15:37:33.618Z,40.88
2019-01-16T15:41:41.095Z,41.34
2019-01-16T15:45:48.505Z,41.40
2019-01-16T15:49:58.325Z,41.40
2019-01-16T15:54:23.961Z,41.79
2019-01-16T15:58:30.806Z,42.23
2019-01-16T16:02:50.083Z,42.90
2019-01-16T16:06:57.571Z,42.80
2019-01-16T16:11:21.757Z,42.79
2019-01-16T16:15:27.320Z,43.03
2019-01-16T16:19:34.633Z,42.93
2019-01-16T16:23:42.030Z,43.08
2019-01-16T16:27:53.246Z,42.96
2019-01-16T16:32:06.548Z,43.00
2019-01-16T16:36:14.985Z,43.13
2019-01-16T16:40:32.164Z,42.93
2019-01-16T16:44:42.923Z,42.62
2019-01-16T16:49:02.611Z,42.79
2019-01-16T16:53:09.923Z,42.89
2019-01-16T16:57:22.680Z,42.84
2019-01-16T17:01:35.769Z,42.97
2019-01-16T17:05:43.093Z,43.30
2019-01-16T17:09:50.423Z,43.16
2019-01-16T17:13:57.770Z,42.89
2019-01-16T17:18:06.205Z,43.23
2019-01-16T17:22:32.428Z,43.92
2019-01-16T17:26:39.140Z,44.06
2019-01-16T17:30:46.497Z,43.98
2019-01-16T17:34:54.873Z,43.76
2019-01-16T17:39:07.907Z,44.05
2019-01-16T17:43:28.411Z,44.18
2019-01-16T17:47:41.284Z,44.43
2019-01-16T17:52:00.442Z,44.17
2019-01-16T17:56:23.584Z,44.34
2019-01-16T18:00:30.929Z,44.34
2019-01-16T18:04:57.509Z,44.81
2019-01-16T18:09:10.658Z,45.00
2019-01-16T18:13:34.251Z,45.21
2019-01-16T18:17:56.254Z,45.26
2019-01-16T18:22:05.352Z,45.64
2019-01-16T18:26:20.307Z,45.33
2019-01-16T18:30:25.840Z,44.80
2019-01-16T18:34:56.797Z,44.73
2019-01-16T18:39:09.815Z,44.75
2019-01-16T18:43:22.884Z,44.56
2019-01-16T18:47:50.959Z,44.53
2019-01-16T18:52:14.468Z,44.52
2019-01-16T18:56:30.846Z,44.06
2019-01-16T19:00:54.183Z,43.97
2019-01-16T19:04:59.769Z,43.74
2019-01-16T19:09:17.490Z,43.75
2019-01-16T19:13:24.794Z,43.94
2019-01-16T19:17:32.317Z,43.80
2019-01-16T19:21:54.828Z,44.11
2019-01-16T19:26:11.197Z,44.20
2019-01-16T19:30:27.973Z,44.61
2019-01-16T19:34:44.004Z,44.80
2019-01-16T19:39:10.298Z,45.10
2019-01-16T19:43:20.707Z,45.33
2019-01-16T19:47:51.829Z,45.54
2019-01-16T19:52:10.766Z,45.94
2019-01-16T19:56:21.207Z,45.66
2019-01-16T20:00:40.655Z,45.76
2019-01-16T20:04:59.818Z,45.77
2019-01-16T20:09:09.158Z,45.80
2019-01-16T20:13:56.466Z,45.56
2019-01-16T20:18:19.919Z,45.18
2019-01-16T20:22:30.229Z,44.40
2019-01-16T20:26:40.494Z,44.24
2019-01-16T20:31:04.876Z,44.34
2019-01-16T20:35:27.223Z,44.27
2019-01-16T20:39:34.826Z,44.71
2019-01-16T20:43:42.170Z,44.66
2019-01-16T20:48:05.492Z,45.03
2019-01-16T20:52:26.154Z,45.25
2019-01-16T20:56:33.538Z,45.42
2019-01-16T21:00:46.983Z,45.96
2019-01-16T21:05:09.929Z,46.30
2019-01-16T21:09:20.428Z,46.51
2019-01-16T21:13:30.814Z,46.06
2019-01-16T21:17:44.085Z,46.02
2019-01-16T21:21:49.581Z,45.93
2019-01-16T21:26:01.272Z,45.71
2019-01-16T21:30:20.121Z,45.30
2019-01-16T21:34:32.882Z,45.08
2019-01-16T21:38:42.864Z,44.81
2019-01-16T21:42:52.878Z,44.56
2019-01-16T21:47:01.816Z,44.87
2019-01-16T21:51:15.062Z,44.25
2019-01-16T21:55:23.464Z,43.62
2019-01-16T21:59:39.686Z,43.28
2019-01-16T22:03:58.740Z,43.04
2019-01-16T22:08:09.044Z,42.99
2019-01-16T22:12:19.486Z,42.98
2019-01-16T22:17:06.800Z,42.98
2019-01-16T22:21:50.099Z,43.15
2019-01-16T22:26:06.488Z,43.11
2019-01-16T22:30:58.731Z,43.06
2019-01-16T22:35:21.963Z,42.76
2019-01-16T22:39:45.145Z,43.10
2019-01-16T22:43:52.483Z,42.86
2019-01-16T22:53:11.540Z,42.89
2019-01-16T22:57:18.888Z,42.89
2019-01-16T23:01:29.326Z,43.21
2019-01-16T23:05:36.653Z,43.22
2019-01-16T23:09:52.855Z,43.19
2019-01-16T23:14:16.410Z,43.22
2019-01-16T23:18:24.909Z,43.37
2019-01-16T23:22:45.233Z,43.51
2019-01-16T23:27:10.108Z,44.01
2019-01-16T23:31:17.575Z,44.23
2019-01-16T23:35:27.897Z,44.17
2019-01-16T23:39:40.978Z,44.23
2019-01-16T23:44:00.143Z,44.69
2019-01-16T23:48:13.329Z,44.88
2019-01-16T23:52:20.645Z,44.98
2019-01-16T23:56:30.821Z,45.06
